sensor_id;sensor_type;location;lat;lon;timestamp;P1;durP1;ratioP1;P2;durP2;ratioP2
9834;SDS011;69850;50.942;13.748;2023-10-19T00:01:33;12.48;;;6.50;;
9834;SDS011;69850;50.942;13.748;2023-10-19T00:04:54;10.30;;;6.45;;
9834;SDS011;69850;50.942;13.748;2023-10-19T00:08:15;12.15;;;6.90;;
9834;SDS011;69850;50.942;13.748;2023-10-19T00:11:43;12.98;;;6.20;;
9834;SDS011;69850;50.942;13.748;2023-10-19T00:15:06;11.80;;;6.53;;
9834;SDS011;69850;50.942;13.748;2023-10-19T00:18:29;10.48;;;6.85;;
9834;SDS011;69850;50.942;13.748;2023-10-19T00:21:54;9.10;;;5.70;;
9834;SDS011;69850;50.942;13.748;2023-10-19T00:25:19;10.68;;;6.70;;
9834;SDS011;69850;50.942;13.748;2023-10-19T00:28:43;12.32;;;7.07;;
9834;SDS011;69850;50.942;13.748;2023-10-19T00:32:06;12.02;;;7.15;;
9834;SDS011;69850;50.942;13.748;2023-10-19T00:35:33;14.20;;;6.63;;
9834;SDS011;69850;50.942;13.748;2023-10-19T00:38:54;11.15;;;6.57;;
9834;SDS011;69850;50.942;13.748;2023-10-19T00:42:18;11.85;;;6.53;;
9834;SDS011;69850;50.942;13.748;2023-10-19T00:45:43;11.57;;;6.43;;
9834;SDS011;69850;50.942;13.748;2023-10-19T00:49:07;11.50;;;6.40;;
9834;SDS011;69850;50.942;13.748;2023-10-19T00:52:29;9.93;;;6.55;;
9834;SDS011;69850;50.942;13.748;2023-10-19T00:55:52;10.50;;;6.25;;
9834;SDS011;69850;50.942;13.748;2023-10-19T00:59:14;13.77;;;7.13;;
9834;SDS011;69850;50.942;13.748;2023-10-19T01:02:40;9.63;;;6.95;;
9834;SDS011;69850;50.942;13.748;2023-10-19T01:06:06;12.70;;;7.95;;
9834;SDS011;69850;50.942;13.748;2023-10-19T01:09:30;12.70;;;7.00;;
9834;SDS011;69850;50.942;13.748;2023-10-19T01:12:55;14.68;;;7.40;;
9834;SDS011;69850;50.942;13.748;2023-10-19T01:16:16;11.73;;;7.15;;
9834;SDS011;69850;50.942;13.748;2023-10-19T01:19:43;12.60;;;6.72;;
9834;SDS011;69850;50.942;13.748;2023-10-19T01:23:07;11.93;;;6.70;;
9834;SDS011;69850;50.942;13.748;2023-10-19T01:26:29;10.25;;;7.28;;
9834;SDS011;69850;50.942;13.748;2023-10-19T01:29:49;15.75;;;7.90;;
9834;SDS011;69850;50.942;13.748;2023-10-19T01:33:20;12.98;;;6.88;;
9834;SDS011;69850;50.942;13.748;2023-10-19T01:36:43;14.65;;;6.93;;
9834;SDS011;69850;50.942;13.748;2023-10-19T01:40:03;12.32;;;7.78;;
9834;SDS011;69850;50.942;13.748;2023-10-19T01:43:27;13.20;;;6.70;;
9834;SDS011;69850;50.942;13.748;2023-10-19T01:46:51;11.80;;;6.97;;
9834;SDS011;69850;50.942;13.748;2023-10-19T01:50:12;12.45;;;8.00;;
9834;SDS011;69850;50.942;13.748;2023-10-19T01:53:40;15.82;;;8.57;;
9834;SDS011;69850;50.942;13.748;2023-10-19T01:57:04;14.15;;;8.55;;
9834;SDS011;69850;50.942;13.748;2023-10-19T02:00:25;12.57;;;7.43;;
9834;SDS011;69850;50.942;13.748;2023-10-19T02:03:47;14.05;;;9.20;;
9834;SDS011;69850;50.942;13.748;2023-10-19T02:07:13;13.85;;;8.55;;
9834;SDS011;69850;50.942;13.748;2023-10-19T02:10:38;14.07;;;8.68;;
9834;SDS011;69850;50.942;13.748;2023-10-19T02:14:02;13.57;;;8.80;;
9834;SDS011;69850;50.942;13.748;2023-10-19T02:17:25;13.02;;;8.75;;
9834;SDS011;69850;50.942;13.748;2023-10-19T02:20:45;14.65;;;8.23;;
9834;SDS011;69850;50.942;13.748;2023-10-19T02:24:09;13.10;;;8.93;;
9834;SDS011;69850;50.942;13.748;2023-10-19T02:27:36;14.48;;;9.02;;
9834;SDS011;69850;50.942;13.748;2023-10-19T02:30:58;15.18;;;9.25;;
9834;SDS011;69850;50.942;13.748;2023-10-19T02:34:31;13.20;;;8.48;;
9834;SDS011;69850;50.942;13.748;2023-10-19T02:37:52;14.30;;;9.18;;
9834;SDS011;69850;50.942;13.748;2023-10-19T02:41:12;13.70;;;9.43;;
9834;SDS011;69850;50.942;13.748;2023-10-19T02:44:33;9.85;;;7.80;;
9834;SDS011;69850;50.942;13.748;2023-10-19T02:47:54;12.73;;;9.05;;
9834;SDS011;69850;50.942;13.748;2023-10-19T02:51:16;15.85;;;9.27;;
9834;SDS011;69850;50.942;13.748;2023-10-19T02:54:39;12.65;;;8.25;;
9834;SDS011;69850;50.942;13.748;2023-10-19T02:58:00;12.93;;;8.80;;
9834;SDS011;69850;50.942;13.748;2023-10-19T03:01:20;14.15;;;8.60;;
9834;SDS011;69850;50.942;13.748;2023-10-19T03:04:45;16.25;;;9.05;;
9834;SDS011;69850;50.942;13.748;2023-10-19T03:08:06;14.70;;;9.43;;
9834;SDS011;69850;50.942;13.748;2023-10-19T03:11:27;11.10;;;8.05;;
9834;SDS011;69850;50.942;13.748;2023-10-19T03:14:48;13.70;;;9.50;;
9834;SDS011;69850;50.942;13.748;2023-10-19T03:18:09;14.75;;;10.10;;
9834;SDS011;69850;50.942;13.748;2023-10-19T03:21:30;17.20;;;10.10;;
9834;SDS011;69850;50.942;13.748;2023-10-19T03:25:02;13.63;;;10.45;;
9834;SDS011;69850;50.942;13.748;2023-10-19T03:28:54;16.73;;;11.20;;
9834;SDS011;69850;50.942;13.748;2023-10-19T03:32:16;19.33;;;11.90;;
9834;SDS011;69850;50.942;13.748;2023-10-19T03:35:39;19.10;;;12.48;;
9834;SDS011;69850;50.942;13.748;2023-10-19T03:39:02;18.58;;;12.73;;
9834;SDS011;69850;50.942;13.748;2023-10-19T03:42:35;22.67;;;14.35;;
9834;SDS011;69850;50.942;13.748;2023-10-19T03:46:03;19.98;;;14.40;;
9834;SDS011;69850;50.942;13.748;2023-10-19T03:49:44;21.75;;;14.68;;
9834;SDS011;69850;50.942;13.748;2023-10-19T03:53:07;22.30;;;14.73;;
9834;SDS011;69850;50.942;13.748;2023-10-19T03:56:32;23.77;;;15.02;;
9834;SDS011;69850;50.942;13.748;2023-10-19T03:59:53;23.45;;;14.98;;
9834;SDS011;69850;50.942;13.748;2023-10-19T04:03:17;23.30;;;15.88;;
9834;SDS011;69850;50.942;13.748;2023-10-19T04:06:38;26.52;;;17.48;;
9834;SDS011;69850;50.942;13.748;2023-10-19T04:10:00;25.95;;;19.15;;
9834;SDS011;69850;50.942;13.748;2023-10-19T04:13:27;27.08;;;19.02;;
9834;SDS011;69850;50.942;13.748;2023-10-19T04:16:47;27.35;;;19.33;;
9834;SDS011;69850;50.942;13.748;2023-10-19T04:20:09;34.45;;;22.73;;
9834;SDS011;69850;50.942;13.748;2023-10-19T04:23:39;30.63;;;20.70;;
9834;SDS011;69850;50.942;13.748;2023-10-19T04:27:01;36.03;;;22.02;;
9834;SDS011;69850;50.942;13.748;2023-10-19T04:30:21;30.75;;;21.27;;
9834;SDS011;69850;50.942;13.748;2023-10-19T04:33:42;28.77;;;20.55;;
9834;SDS011;69850;50.942;13.748;2023-10-19T04:37:05;30.25;;;20.15;;
9834;SDS011;69850;50.942;13.748;2023-10-19T04:40:27;27.73;;;18.60;;
9834;SDS011;69850;50.942;13.748;2023-10-19T04:43:47;27.00;;;18.60;;
9834;SDS011;69850;50.942;13.748;2023-10-19T04:47:10;26.90;;;18.27;;
9834;SDS011;69850;50.942;13.748;2023-10-19T04:50:32;26.02;;;18.80;;
9834;SDS011;69850;50.942;13.748;2023-10-19T04:53:53;27.20;;;18.95;;
9834;SDS011;69850;50.942;13.748;2023-10-19T04:57:15;27.67;;;18.58;;
9834;SDS011;69850;50.942;13.748;2023-10-19T05:00:35;23.27;;;16.48;;
9834;SDS011;69850;50.942;13.748;2023-10-19T05:03:56;25.00;;;17.50;;
9834;SDS011;69850;50.942;13.748;2023-10-19T05:07:17;26.98;;;18.55;;
9834;SDS011;69850;50.942;13.748;2023-10-19T05:10:37;28.67;;;19.98;;
9834;SDS011;69850;50.942;13.748;2023-10-19T05:13:58;30.25;;;20.95;;
9834;SDS011;69850;50.942;13.748;2023-10-19T05:17:19;28.55;;;20.52;;
9834;SDS011;69850;50.942;13.748;2023-10-19T05:20:41;27.48;;;18.80;;
9834;SDS011;69850;50.942;13.748;2023-10-19T05:24:02;31.13;;;20.40;;
9834;SDS011;69850;50.942;13.748;2023-10-19T05:27:22;28.85;;;19.48;;
9834;SDS011;69850;50.942;13.748;2023-10-19T05:30:43;30.63;;;21.15;;
9834;SDS011;69850;50.942;13.748;2023-10-19T05:34:04;30.77;;;20.63;;
9834;SDS011;69850;50.942;13.748;2023-10-19T05:37:25;32.63;;;21.77;;
9834;SDS011;69850;50.942;13.748;2023-10-19T05:40:49;35.50;;;23.38;;
9834;SDS011;69850;50.942;13.748;2023-10-19T05:44:12;34.22;;;23.23;;
9834;SDS011;69850;50.942;13.748;2023-10-19T05:47:33;35.75;;;24.60;;
9834;SDS011;69850;50.942;13.748;2023-10-19T05:50:55;37.15;;;22.92;;
9834;SDS011;69850;50.942;13.748;2023-10-19T05:54:16;33.78;;;22.42;;
9834;SDS011;69850;50.942;13.748;2023-10-19T05:57:37;34.38;;;24.52;;
9834;SDS011;69850;50.942;13.748;2023-10-19T06:01:00;37.80;;;25.45;;
9834;SDS011;69850;50.942;13.748;2023-10-19T06:04:21;33.88;;;22.27;;
9834;SDS011;69850;50.942;13.748;2023-10-19T06:07:45;36.75;;;25.13;;
9834;SDS011;69850;50.942;13.748;2023-10-19T06:11:07;34.58;;;23.55;;
9834;SDS011;69850;50.942;13.748;2023-10-19T06:14:28;39.80;;;26.17;;
9834;SDS011;69850;50.942;13.748;2023-10-19T06:17:50;39.67;;;25.48;;
9834;SDS011;69850;50.942;13.748;2023-10-19T06:21:12;38.50;;;25.75;;
9834;SDS011;69850;50.942;13.748;2023-10-19T06:24:40;40.15;;;26.58;;
9834;SDS011;69850;50.942;13.748;2023-10-19T06:28:00;39.10;;;27.20;;
9834;SDS011;69850;50.942;13.748;2023-10-19T06:31:21;37.53;;;24.92;;
9834;SDS011;69850;50.942;13.748;2023-10-19T06:34:42;40.63;;;26.55;;
9834;SDS011;69850;50.942;13.748;2023-10-19T06:38:03;38.85;;;26.48;;
9834;SDS011;69850;50.942;13.748;2023-10-19T06:41:24;34.03;;;23.67;;
9834;SDS011;69850;50.942;13.748;2023-10-19T06:44:45;36.70;;;25.42;;
9834;SDS011;69850;50.942;13.748;2023-10-19T06:48:05;36.15;;;26.05;;
9834;SDS011;69850;50.942;13.748;2023-10-19T06:51:27;40.92;;;27.42;;
9834;SDS011;69850;50.942;13.748;2023-10-19T06:54:47;35.05;;;24.98;;
9834;SDS011;69850;50.942;13.748;2023-10-19T06:58:08;36.42;;;25.50;;
9834;SDS011;69850;50.942;13.748;2023-10-19T07:01:29;38.20;;;25.00;;
9834;SDS011;69850;50.942;13.748;2023-10-19T07:04:52;38.03;;;25.95;;
9834;SDS011;69850;50.942;13.748;2023-10-19T07:08:13;42.65;;;28.33;;
9834;SDS011;69850;50.942;13.748;2023-10-19T07:11:33;42.80;;;28.00;;
9834;SDS011;69850;50.942;13.748;2023-10-19T07:14:54;40.40;;;27.20;;
9834;SDS011;69850;50.942;13.748;2023-10-19T07:18:15;38.83;;;27.10;;
9834;SDS011;69850;50.942;13.748;2023-10-19T07:21:35;42.38;;;28.75;;
9834;SDS011;69850;50.942;13.748;2023-10-19T07:24:58;41.13;;;28.17;;
9834;SDS011;69850;50.942;13.748;2023-10-19T07:28:18;37.72;;;25.95;;
9834;SDS011;69850;50.942;13.748;2023-10-19T07:31:39;38.92;;;26.13;;
9834;SDS011;69850;50.942;13.748;2023-10-19T07:35:00;38.88;;;26.15;;
9834;SDS011;69850;50.942;13.748;2023-10-19T07:38:22;39.58;;;26.65;;
9834;SDS011;69850;50.942;13.748;2023-10-19T07:41:43;38.00;;;25.75;;
9834;SDS011;69850;50.942;13.748;2023-10-19T07:45:04;36.50;;;25.00;;
9834;SDS011;69850;50.942;13.748;2023-10-19T07:48:25;40.95;;;25.33;;
9834;SDS011;69850;50.942;13.748;2023-10-19T07:51:46;38.90;;;25.95;;
9834;SDS011;69850;50.942;13.748;2023-10-19T07:55:08;38.80;;;26.88;;
9834;SDS011;69850;50.942;13.748;2023-10-19T07:58:28;36.65;;;24.75;;
9834;SDS011;69850;50.942;13.748;2023-10-19T08:01:50;36.97;;;25.10;;
9834;SDS011;69850;50.942;13.748;2023-10-19T08:05:11;37.17;;;23.90;;
9834;SDS011;69850;50.942;13.748;2023-10-19T08:08:33;36.30;;;23.70;;
9834;SDS011;69850;50.942;13.748;2023-10-19T08:11:55;32.70;;;23.13;;
9834;SDS011;69850;50.942;13.748;2023-10-19T08:15:16;37.58;;;25.40;;
9834;SDS011;69850;50.942;13.748;2023-10-19T08:18:37;36.47;;;26.55;;
9834;SDS011;69850;50.942;13.748;2023-10-19T08:21:58;41.95;;;28.23;;
9834;SDS011;69850;50.942;13.748;2023-10-19T08:25:19;39.33;;;25.33;;
9834;SDS011;69850;50.942;13.748;2023-10-19T08:28:41;36.97;;;25.67;;
9834;SDS011;69850;50.942;13.748;2023-10-19T08:32:01;35.40;;;23.90;;
9834;SDS011;69850;50.942;13.748;2023-10-19T08:35:22;33.10;;;23.63;;
9834;SDS011;69850;50.942;13.748;2023-10-19T08:38:46;41.80;;;27.92;;
9834;SDS011;69850;50.942;13.748;2023-10-19T08:42:07;35.78;;;25.20;;
9834;SDS011;69850;50.942;13.748;2023-10-19T08:45:31;41.15;;;25.98;;
9834;SDS011;69850;50.942;13.748;2023-10-19T08:48:57;31.77;;;23.77;;
9834;SDS011;69850;50.942;13.748;2023-10-19T08:52:20;31.63;;;22.60;;
9834;SDS011;69850;50.942;13.748;2023-10-19T08:55:43;31.00;;;22.48;;
9834;SDS011;69850;50.942;13.748;2023-10-19T08:59:03;27.23;;;18.88;;
9834;SDS011;69850;50.942;13.748;2023-10-19T09:02:24;26.80;;;19.88;;
9834;SDS011;69850;50.942;13.748;2023-10-19T09:05:45;28.45;;;20.50;;
9834;SDS011;69850;50.942;13.748;2023-10-19T09:09:07;25.45;;;19.92;;
9834;SDS011;69850;50.942;13.748;2023-10-19T09:12:29;26.90;;;19.73;;
9834;SDS011;69850;50.942;13.748;2023-10-19T09:15:50;28.20;;;21.48;;
9834;SDS011;69850;50.942;13.748;2023-10-19T09:19:13;28.33;;;22.02;;
9834;SDS011;69850;50.942;13.748;2023-10-19T09:22:35;29.67;;;22.10;;
9834;SDS011;69850;50.942;13.748;2023-10-19T09:25:58;28.23;;;20.58;;
9834;SDS011;69850;50.942;13.748;2023-10-19T09:29:27;24.63;;;18.95;;
9834;SDS011;69850;50.942;13.748;2023-10-19T09:32:47;24.70;;;19.10;;
9834;SDS011;69850;50.942;13.748;2023-10-19T09:36:08;24.90;;;18.70;;
9834;SDS011;69850;50.942;13.748;2023-10-19T09:39:36;25.58;;;19.55;;
9834;SDS011;69850;50.942;13.748;2023-10-19T09:42:57;24.77;;;19.58;;
9834;SDS011;69850;50.942;13.748;2023-10-19T09:46:29;21.42;;;14.88;;
9834;SDS011;69850;50.942;13.748;2023-10-19T09:49:51;24.10;;;18.35;;
9834;SDS011;69850;50.942;13.748;2023-10-19T09:53:12;23.38;;;18.55;;
9834;SDS011;69850;50.942;13.748;2023-10-19T09:56:36;17.23;;;13.85;;
9834;SDS011;69850;50.942;13.748;2023-10-19T10:00:03;19.38;;;14.70;;
9834;SDS011;69850;50.942;13.748;2023-10-19T10:03:46;17.80;;;13.75;;
9834;SDS011;69850;50.942;13.748;2023-10-19T10:07:13;16.77;;;13.20;;
9834;SDS011;69850;50.942;13.748;2023-10-19T10:10:34;20.90;;;16.88;;
9834;SDS011;69850;50.942;13.748;2023-10-19T10:13:56;24.67;;;18.00;;
9834;SDS011;69850;50.942;13.748;2023-10-19T10:17:17;22.92;;;18.48;;
9834;SDS011;69850;50.942;13.748;2023-10-19T10:20:38;19.08;;;16.10;;
9834;SDS011;69850;50.942;13.748;2023-10-19T10:24:00;20.33;;;16.27;;
9834;SDS011;69850;50.942;13.748;2023-10-19T10:27:23;22.33;;;17.08;;
9834;SDS011;69850;50.942;13.748;2023-10-19T10:34:42;17.83;;;14.07;;
9834;SDS011;69850;50.942;13.748;2023-10-19T10:38:03;20.23;;;15.48;;
9834;SDS011;69850;50.942;13.748;2023-10-19T10:41:25;20.83;;;15.88;;
9834;SDS011;69850;50.942;13.748;2023-10-19T10:44:48;18.05;;;13.80;;
9834;SDS011;69850;50.942;13.748;2023-10-19T10:51:33;18.02;;;14.70;;
9834;SDS011;69850;50.942;13.748;2023-10-19T10:54:53;17.77;;;13.70;;
9834;SDS011;69850;50.942;13.748;2023-10-19T10:58:15;16.13;;;13.98;;
9834;SDS011;69850;50.942;13.748;2023-10-19T11:01:37;18.92;;;16.00;;
9834;SDS011;69850;50.942;13.748;2023-10-19T11:04:58;20.38;;;16.05;;
9834;SDS011;69850;50.942;13.748;2023-10-19T11:08:20;22.52;;;17.65;;
9834;SDS011;69850;50.942;13.748;2023-10-19T11:11:45;17.92;;;15.40;;
9834;SDS011;69850;50.942;13.748;2023-10-19T11:15:06;19.15;;;15.18;;
9834;SDS011;69850;50.942;13.748;2023-10-19T11:21:55;20.08;;;16.38;;
9834;SDS011;69850;50.942;13.748;2023-10-19T11:25:17;20.30;;;16.10;;
9834;SDS011;69850;50.942;13.748;2023-10-19T11:28:38;22.77;;;17.85;;
9834;SDS011;69850;50.942;13.748;2023-10-19T11:32:03;24.70;;;19.30;;
9834;SDS011;69850;50.942;13.748;2023-10-19T11:35:25;22.55;;;17.98;;
9834;SDS011;69850;50.942;13.748;2023-10-19T11:38:46;22.30;;;16.95;;
9834;SDS011;69850;50.942;13.748;2023-10-19T11:42:08;23.23;;;17.92;;
9834;SDS011;69850;50.942;13.748;2023-10-19T11:45:30;22.58;;;16.45;;
9834;SDS011;69850;50.942;13.748;2023-10-19T11:48:50;23.27;;;18.00;;
9834;SDS011;69850;50.942;13.748;2023-10-19T11:52:11;20.88;;;16.73;;
9834;SDS011;69850;50.942;13.748;2023-10-19T11:55:32;21.20;;;17.17;;
9834;SDS011;69850;50.942;13.748;2023-10-19T11:58:52;24.52;;;18.25;;
9834;SDS011;69850;50.942;13.748;2023-10-19T12:02:13;24.30;;;19.55;;
9834;SDS011;69850;50.942;13.748;2023-10-19T12:05:39;26.30;;;22.20;;
9834;SDS011;69850;50.942;13.748;2023-10-19T12:08:59;26.20;;;20.30;;
9834;SDS011;69850;50.942;13.748;2023-10-19T12:12:26;23.48;;;19.02;;
9834;SDS011;69850;50.942;13.748;2023-10-19T12:15:46;22.17;;;18.20;;
9834;SDS011;69850;50.942;13.748;2023-10-19T12:19:15;26.40;;;19.30;;
9834;SDS011;69850;50.942;13.748;2023-10-19T12:22:39;26.52;;;18.25;;
9834;SDS011;69850;50.942;13.748;2023-10-19T12:26:00;32.95;;;25.15;;
9834;SDS011;69850;50.942;13.748;2023-10-19T12:29:24;35.00;;;26.33;;
9834;SDS011;69850;50.942;13.748;2023-10-19T12:32:45;37.38;;;25.75;;
9834;SDS011;69850;50.942;13.748;2023-10-19T12:36:10;35.05;;;26.27;;
9834;SDS011;69850;50.942;13.748;2023-10-19T12:39:42;39.15;;;27.00;;
9834;SDS011;69850;50.942;13.748;2023-10-19T12:43:05;35.75;;;26.98;;
9834;SDS011;69850;50.942;13.748;2023-10-19T12:46:27;35.03;;;27.17;;
9834;SDS011;69850;50.942;13.748;2023-10-19T12:49:49;35.05;;;26.20;;
9834;SDS011;69850;50.942;13.748;2023-10-19T12:53:11;38.33;;;29.02;;
9834;SDS011;69850;50.942;13.748;2023-10-19T12:56:32;34.42;;;26.88;;
9834;SDS011;69850;50.942;13.748;2023-10-19T12:59:55;33.60;;;24.95;;
9834;SDS011;69850;50.942;13.748;2023-10-19T13:03:16;32.10;;;24.75;;
9834;SDS011;69850;50.942;13.748;2023-10-19T13:06:37;30.63;;;23.10;;
9834;SDS011;69850;50.942;13.748;2023-10-19T13:09:58;32.13;;;23.83;;
9834;SDS011;69850;50.942;13.748;2023-10-19T13:13:19;33.72;;;25.23;;
9834;SDS011;69850;50.942;13.748;2023-10-19T13:16:43;30.52;;;24.65;;
9834;SDS011;69850;50.942;13.748;2023-10-19T13:20:03;31.80;;;24.77;;
9834;SDS011;69850;50.942;13.748;2023-10-19T13:23:36;29.52;;;23.73;;
9834;SDS011;69850;50.942;13.748;2023-10-19T13:26:57;33.40;;;24.77;;
9834;SDS011;69850;50.942;13.748;2023-10-19T13:30:17;28.42;;;22.70;;
9834;SDS011;69850;50.942;13.748;2023-10-19T13:33:38;32.33;;;24.17;;
9834;SDS011;69850;50.942;13.748;2023-10-19T13:36:58;26.58;;;22.60;;
9834;SDS011;69850;50.942;13.748;2023-10-19T13:40:19;26.65;;;21.70;;
9834;SDS011;69850;50.942;13.748;2023-10-19T13:43:40;27.90;;;22.30;;
9834;SDS011;69850;50.942;13.748;2023-10-19T13:47:02;31.33;;;22.85;;
9834;SDS011;69850;50.942;13.748;2023-10-19T13:50:25;24.85;;;20.60;;
9834;SDS011;69850;50.942;13.748;2023-10-19T13:53:46;26.80;;;20.98;;
9834;SDS011;69850;50.942;13.748;2023-10-19T13:57:07;28.35;;;22.70;;
9834;SDS011;69850;50.942;13.748;2023-10-19T14:00:28;28.50;;;21.77;;
9834;SDS011;69850;50.942;13.748;2023-10-19T14:03:55;31.92;;;22.92;;
9834;SDS011;69850;50.942;13.748;2023-10-19T14:07:16;31.55;;;24.25;;
9834;SDS011;69850;50.942;13.748;2023-10-19T14:10:36;32.97;;;25.02;;
9834;SDS011;69850;50.942;13.748;2023-10-19T14:13:57;33.67;;;25.75;;
9834;SDS011;69850;50.942;13.748;2023-10-19T14:17:18;31.67;;;24.25;;
9834;SDS011;69850;50.942;13.748;2023-10-19T14:20:39;32.97;;;23.60;;
9834;SDS011;69850;50.942;13.748;2023-10-19T14:24:00;30.70;;;23.48;;
9834;SDS011;69850;50.942;13.748;2023-10-19T14:27:21;30.33;;;23.27;;
9834;SDS011;69850;50.942;13.748;2023-10-19T14:30:42;32.38;;;25.23;;
9834;SDS011;69850;50.942;13.748;2023-10-19T14:34:03;33.45;;;24.27;;
9834;SDS011;69850;50.942;13.748;2023-10-19T14:37:24;33.50;;;25.77;;
9834;SDS011;69850;50.942;13.748;2023-10-19T14:40:44;33.17;;;26.52;;
9834;SDS011;69850;50.942;13.748;2023-10-19T14:44:08;34.97;;;26.70;;
9834;SDS011;69850;50.942;13.748;2023-10-19T14:47:29;34.88;;;27.00;;
9834;SDS011;69850;50.942;13.748;2023-10-19T14:50:50;37.22;;;27.75;;
9834;SDS011;69850;50.942;13.748;2023-10-19T14:54:14;41.30;;;30.33;;
9834;SDS011;69850;50.942;13.748;2023-10-19T14:57:37;36.28;;;27.98;;
9834;SDS011;69850;50.942;13.748;2023-10-19T15:01:00;36.28;;;27.50;;
9834;SDS011;69850;50.942;13.748;2023-10-19T15:04:20;40.00;;;29.67;;
9834;SDS011;69850;50.942;13.748;2023-10-19T15:07:45;38.20;;;28.83;;
9834;SDS011;69850;50.942;13.748;2023-10-19T15:11:07;44.90;;;30.05;;
9834;SDS011;69850;50.942;13.748;2023-10-19T15:14:28;42.85;;;30.92;;
9834;SDS011;69850;50.942;13.748;2023-10-19T15:17:48;44.47;;;30.75;;
9834;SDS011;69850;50.942;13.748;2023-10-19T15:21:12;41.30;;;30.70;;
9834;SDS011;69850;50.942;13.748;2023-10-19T15:24:34;41.67;;;31.17;;
9834;SDS011;69850;50.942;13.748;2023-10-19T15:27:56;46.75;;;33.22;;
9834;SDS011;69850;50.942;13.748;2023-10-19T15:31:17;45.65;;;32.22;;
9834;SDS011;69850;50.942;13.748;2023-10-19T15:34:37;48.05;;;33.70;;
9834;SDS011;69850;50.942;13.748;2023-10-19T15:38:01;51.83;;;35.63;;
9834;SDS011;69850;50.942;13.748;2023-10-19T15:41:22;49.60;;;35.15;;
9834;SDS011;69850;50.942;13.748;2023-10-19T15:44:42;52.30;;;36.95;;
9834;SDS011;69850;50.942;13.748;2023-10-19T15:48:03;67.60;;;43.53;;
9834;SDS011;69850;50.942;13.748;2023-10-19T15:51:24;70.90;;;45.92;;
9834;SDS011;69850;50.942;13.748;2023-10-19T15:54:45;90.03;;;58.45;;
9834;SDS011;69850;50.942;13.748;2023-10-19T15:58:05;85.47;;;56.75;;
9834;SDS011;69850;50.942;13.748;2023-10-19T16:01:28;68.00;;;45.20;;
9834;SDS011;69850;50.942;13.748;2023-10-19T16:04:50;76.45;;;47.58;;
9834;SDS011;69850;50.942;13.748;2023-10-19T16:08:10;66.15;;;43.10;;
9834;SDS011;69850;50.942;13.748;2023-10-19T16:11:31;68.80;;;43.90;;
9834;SDS011;69850;50.942;13.748;2023-10-19T16:14:52;65.95;;;40.78;;
9834;SDS011;69850;50.942;13.748;2023-10-19T16:18:12;67.35;;;43.67;;
9834;SDS011;69850;50.942;13.748;2023-10-19T16:21:33;76.28;;;45.70;;
9834;SDS011;69850;50.942;13.748;2023-10-19T16:24:54;68.22;;;43.70;;
9834;SDS011;69850;50.942;13.748;2023-10-19T16:28:15;65.97;;;42.83;;
9834;SDS011;69850;50.942;13.748;2023-10-19T16:31:37;69.97;;;44.97;;
9834;SDS011;69850;50.942;13.748;2023-10-19T16:34:58;70.72;;;44.58;;
9834;SDS011;69850;50.942;13.748;2023-10-19T16:38:19;76.75;;;47.92;;
9834;SDS011;69850;50.942;13.748;2023-10-19T16:41:40;85.80;;;50.33;;
9834;SDS011;69850;50.942;13.748;2023-10-19T16:45:01;89.15;;;53.90;;
9834;SDS011;69850;50.942;13.748;2023-10-19T16:48:23;69.55;;;43.00;;
9834;SDS011;69850;50.942;13.748;2023-10-19T16:51:44;70.28;;;42.50;;
9834;SDS011;69850;50.942;13.748;2023-10-19T16:55:05;67.95;;;42.13;;
9834;SDS011;69850;50.942;13.748;2023-10-19T16:58:27;75.53;;;45.58;;
9834;SDS011;69850;50.942;13.748;2023-10-19T17:01:48;68.20;;;41.80;;
9834;SDS011;69850;50.942;13.748;2023-10-19T17:05:09;68.20;;;43.03;;
9834;SDS011;69850;50.942;13.748;2023-10-19T17:08:30;67.88;;;43.00;;
9834;SDS011;69850;50.942;13.748;2023-10-19T17:11:51;67.10;;;42.55;;
9834;SDS011;69850;50.942;13.748;2023-10-19T17:15:12;63.38;;;41.08;;
9834;SDS011;69850;50.942;13.748;2023-10-19T17:18:33;64.55;;;41.42;;
9834;SDS011;69850;50.942;13.748;2023-10-19T17:21:54;60.45;;;39.53;;
9834;SDS011;69850;50.942;13.748;2023-10-19T17:25:15;67.57;;;41.78;;
9834;SDS011;69850;50.942;13.748;2023-10-19T17:28:36;78.28;;;47.55;;
9834;SDS011;69850;50.942;13.748;2023-10-19T17:31:57;73.47;;;46.58;;
9834;SDS011;69850;50.942;13.748;2023-10-19T17:35:18;62.42;;;39.38;;
9834;SDS011;69850;50.942;13.748;2023-10-19T17:38:39;62.13;;;40.17;;
9834;SDS011;69850;50.942;13.748;2023-10-19T17:42:00;64.72;;;39.75;;
9834;SDS011;69850;50.942;13.748;2023-10-19T17:45:22;71.45;;;41.78;;
9834;SDS011;69850;50.942;13.748;2023-10-19T17:48:44;72.57;;;43.30;;
9834;SDS011;69850;50.942;13.748;2023-10-19T17:52:05;74.60;;;46.38;;
9834;SDS011;69850;50.942;13.748;2023-10-19T17:55:26;112.97;;;66.25;;
9834;SDS011;69850;50.942;13.748;2023-10-19T17:58:47;84.97;;;47.95;;
9834;SDS011;69850;50.942;13.748;2023-10-19T18:02:10;77.85;;;46.28;;
9834;SDS011;69850;50.942;13.748;2023-10-19T18:05:31;80.13;;;48.17;;
9834;SDS011;69850;50.942;13.748;2023-10-19T18:08:52;90.13;;;51.78;;
9834;SDS011;69850;50.942;13.748;2023-10-19T18:12:13;85.60;;;50.17;;
9834;SDS011;69850;50.942;13.748;2023-10-19T18:15:37;92.05;;;49.85;;
9834;SDS011;69850;50.942;13.748;2023-10-19T18:18:58;86.60;;;49.53;;
9834;SDS011;69850;50.942;13.748;2023-10-19T18:22:19;86.10;;;49.40;;
9834;SDS011;69850;50.942;13.748;2023-10-19T18:25:40;82.25;;;47.67;;
9834;SDS011;69850;50.942;13.748;2023-10-19T18:29:02;85.85;;;48.45;;
9834;SDS011;69850;50.942;13.748;2023-10-19T18:32:26;82.85;;;47.97;;
9834;SDS011;69850;50.942;13.748;2023-10-19T18:35:46;84.43;;;49.55;;
9834;SDS011;69850;50.942;13.748;2023-10-19T18:39:09;89.03;;;50.63;;
9834;SDS011;69850;50.942;13.748;2023-10-19T18:42:30;88.22;;;50.38;;
9834;SDS011;69850;50.942;13.748;2023-10-19T18:45:52;84.78;;;48.85;;
9834;SDS011;69850;50.942;13.748;2023-10-19T18:49:13;75.75;;;44.88;;
9834;SDS011;69850;50.942;13.748;2023-10-19T18:52:34;78.70;;;46.17;;
9834;SDS011;69850;50.942;13.748;2023-10-19T18:55:55;84.35;;;46.28;;
9834;SDS011;69850;50.942;13.748;2023-10-19T18:59:19;70.70;;;42.15;;
9834;SDS011;69850;50.942;13.748;2023-10-19T19:02:40;72.05;;;42.13;;
9834;SDS011;69850;50.942;13.748;2023-10-19T19:06:02;81.15;;;45.70;;
9834;SDS011;69850;50.942;13.748;2023-10-19T19:09:31;79.13;;;44.60;;
9834;SDS011;69850;50.942;13.748;2023-10-19T19:12:53;80.78;;;46.47;;
9834;SDS011;69850;50.942;13.748;2023-10-19T19:16:15;85.05;;;48.30;;
9834;SDS011;69850;50.942;13.748;2023-10-19T19:19:36;86.10;;;46.75;;
9834;SDS011;69850;50.942;13.748;2023-10-19T19:22:57;83.22;;;48.00;;
9834;SDS011;69850;50.942;13.748;2023-10-19T19:26:18;89.80;;;47.70;;
9834;SDS011;69850;50.942;13.748;2023-10-19T19:29:39;86.88;;;46.88;;
9834;SDS011;69850;50.942;13.748;2023-10-19T19:32:59;85.28;;;47.83;;
9834;SDS011;69850;50.942;13.748;2023-10-19T19:36:21;71.68;;;42.05;;
9834;SDS011;69850;50.942;13.748;2023-10-19T19:39:41;76.70;;;44.67;;
9834;SDS011;69850;50.942;13.748;2023-10-19T19:43:04;83.88;;;45.25;;
9834;SDS011;69850;50.942;13.748;2023-10-19T19:46:25;88.20;;;47.20;;
9834;SDS011;69850;50.942;13.748;2023-10-19T19:49:45;93.63;;;47.92;;
9834;SDS011;69850;50.942;13.748;2023-10-19T19:53:07;96.90;;;49.35;;
9834;SDS011;69850;50.942;13.748;2023-10-19T19:56:30;91.47;;;48.88;;